Time;durP1;ratioP1;P1;durP2;ratioP2;P2;SDS_P1;SDS_P2;PMS_P1;PMS_P2;Temp;Humidity;BMP_temperature;BMP_pressure;BME280_temperature;BME280_humidity;BME280_pressure;Samples;Min_cycle;Max_cycle;Signal;HPM_P1;HPM_P2
2022/12/13 00:01:31;;;;;;;;;;;-2.20;99.90;;;;;;5088434;28;19928;-53
2022/12/13 00:04:00;;;;;;;;;;;-2.20;99.90;;;;;;5091833;28;19987;-53
2022/12/13 00:06:27;;;;;;;;;;;-2.20;99.90;;;;;;5077804;28;19938;-53
2022/12/13 00:08:54;;;;;;;;;;;-2.20;99.90;;;;;;5071194;28;20019;-53
2022/12/13 00:11:21;;;;;;;;;;;-2.20;99.90;;;;;;5092632;28;19930;-53
2022/12/13 00:13:48;;;;;;;;;;;-2.20;99.90;;;;;;5093736;28;20271;-53
2022/12/13 00:16:17;;;;;;;;;;;-2.20;99.90;;;;;;5093873;28;20330;-54
2022/12/13 00:18:46;;;;;;;;;;;-2.20;99.90;;;;;;5092603;28;20361;-55
2022/12/13 00:21:15;;;;;;;;;;;-2.20;99.90;;;;;;5092971;28;20023;-53
2022/12/13 00:23:41;;;;;;;;;;;-2.20;99.90;;;;;;5091885;28;19924;-52
2022/12/13 00:26:10;;;;;;;;;;;-2.20;99.90;;;;;;5096643;28;19955;-61
2022/12/13 00:28:37;;;;;;;;;;;-2.20;99.90;;;;;;5093936;28;19925;-53
2022/12/13 00:31:04;;;;;;;;;;;-2.30;99.90;;;;;;5090657;28;20014;-54
2022/12/13 00:33:32;;;;;;;;;;;-2.20;99.90;;;;;;5090228;28;20356;-53
2022/12/13 00:35:59;;;;;;;;;;;-2.20;99.90;;;;;;5094080;28;20026;-53
2022/12/13 00:38:26;;;;;;;;;;;-2.30;99.90;;;;;;5076262;28;20638;-53
2022/12/13 00:40:52;;;;;;;;;;;-2.30;99.90;;;;;;5104540;28;20042;-53
2022/12/13 00:43:19;;;;;;;;;;;-2.30;99.90;;;;;;5091996;28;19935;-54
2022/12/13 00:45:46;;;;;;;;;;;-2.30;99.90;;;;;;5089537;28;20026;-54
2022/12/13 00:48:13;;;;;;;;;;;-2.30;99.90;;;;;;5094039;28;19923;-53
2022/12/13 00:50:41;;;;;;;;;;;-2.30;99.90;;;;;;5089511;28;20375;-53
2022/12/13 00:53:07;;;;;;;;;;;-2.30;99.90;;;;;;5087292;28;21064;-53
2022/12/13 00:55:34;;;;;;;;;;;-2.30;99.90;;;;;;5091253;28;19981;-53
2022/12/13 00:58:01;;;;;;;;;;;-2.40;99.90;;;;;;5092684;28;19954;-53
2022/12/13 01:00:28;;;;;;;;;;;-2.30;99.90;;;;;;5079536;28;19967;-53
2022/12/13 01:02:55;;;;;;;;;;;-2.30;99.90;;;;;;5091067;28;20557;-53
2022/12/13 01:05:21;;;;;;;;;;;-2.40;99.90;;;;;;5086670;28;20412;-56
2022/12/13 01:07:49;;;;;;;;;;;-2.40;99.90;;;;;;5093416;28;19951;-56
2022/12/13 01:10:16;;;;;;;;;;;-2.40;99.90;;;;;;5089538;28;20019;-52
2022/12/13 01:12:43;;;;;;;;;;;-2.40;99.90;;;;;;5090998;28;20029;-56
2022/12/13 01:15:10;;;;;;;;;;;-2.40;99.90;;;;;;5089025;28;20011;-56
2022/12/13 01:17:37;;;;;;;;;;;-2.40;99.90;;;;;;5082788;28;19955;-53
2022/12/13 01:20:05;;;;;;;;;;;-2.40;99.90;;;;;;5094966;28;20035;-54
2022/12/13 01:22:31;;;;;;;;;;;-2.40;99.90;;;;;;5086943;28;19932;-53
2022/12/13 01:25:00;;;;;;;;;;;-2.40;99.90;;;;;;5086917;28;20003;-53
2022/12/13 01:27:27;;;;;;;;;;;-2.40;99.90;;;;;;5093562;28;20305;-58
2022/12/13 01:29:54;;;;;;;;;;;-2.50;99.90;;;;;;5089964;28;19924;-53
2022/12/13 01:32:21;;;;;;;;;;;-2.50;99.90;;;;;;5090555;28;19930;-53
2022/12/13 01:34:48;;;;;;;;;;;-2.50;99.90;;;;;;5074506;28;19931;-54
2022/12/13 01:37:16;;;;;;;;;;;-2.50;99.90;;;;;;5091107;28;19931;-53
2022/12/13 01:39:43;;;;;;;;;;;-2.50;99.90;;;;;;5087500;28;20386;-54
2022/12/13 01:42:14;;;;;;;;;;;-2.50;99.90;;;;;;5096639;28;19977;-54
2022/12/13 01:44:58;;;;;;;;;;;-2.50;99.90;;;;;;5094173;28;20382;-56
2022/12/13 01:47:27;;;;;;;;;;;-2.50;99.90;;;;;;5090007;28;20416;-56
2022/12/13 01:49:57;;;;;;;;;;;-2.50;99.90;;;;;;5093026;28;19930;-56
2022/12/13 01:52:28;;;;;;;;;;;-2.50;99.90;;;;;;5093143;28;22358;-56
2022/12/13 01:54:56;;;;;;;;;;;-2.50;99.90;;;;;;5068100;28;19924;-56
2022/12/13 01:57:25;;;;;;;;;;;-2.50;99.90;;;;;;5084724;28;19967;-56
2022/12/13 01:59:52;;;;;;;;;;;-2.60;99.90;;;;;;5094236;28;19934;-56
2022/12/13 02:02:19;;;;;;;;;;;-2.60;99.90;;;;;;5082842;28;19977;-56
2022/12/13 02:04:50;;;;;;;;;;;-2.60;99.90;;;;;;5091801;28;19931;-56
2022/12/13 02:07:19;;;;;;;;;;;-2.60;99.90;;;;;;5063189;28;19935;-56
2022/12/13 02:09:46;;;;;;;;;;;-2.60;99.90;;;;;;5083164;28;19924;-56
2022/12/13 02:12:13;;;;;;;;;;;-2.60;99.90;;;;;;5087568;28;19983;-56
2022/12/13 02:14:41;;;;;;;;;;;-2.60;99.90;;;;;;5091645;28;19974;-56
2022/12/13 02:17:13;;;;;;;;;;;-2.60;99.90;;;;;;5070787;28;19969;-56
2022/12/13 02:19:57;;;;;;;;;;;-2.60;99.90;;;;;;5089182;28;19923;-56
2022/12/13 02:22:36;;;;;;;;;;;-2.60;99.90;;;;;;5087389;28;19928;-53
2022/12/13 02:25:17;;;;;;;;;;;-2.70;99.90;;;;;;5088875;28;19955;-53
2022/12/13 02:27:54;;;;;;;;;;;-2.70;99.90;;;;;;5084236;28;19924;-53
2022/12/13 02:30:23;;;;;;;;;;;-2.70;99.90;;;;;;5092422;28;20688;-52
2022/12/13 02:33:14;;;;;;;;;;;-2.70;99.90;;;;;;5093694;28;19962;-53
2022/12/13 02:35:43;;;;;;;;;;;-2.70;99.90;;;;;;5074733;28;19928;-53
2022/12/13 02:38:13;;;;;;;;;;;-2.70;99.90;;;;;;5095289;28;19924;-53
2022/12/13 02:40:42;;;;;;;;;;;-2.70;99.90;;;;;;5092878;28;19993;-53
2022/12/13 02:43:12;;;;;;;;;;;-2.80;99.90;;;;;;5070450;28;20550;-53
2022/12/13 02:45:44;;;;;;;;;;;-2.80;99.90;;;;;;5094147;28;19963;-53
2022/12/13 02:48:12;;;;;;;;;;;-2.80;99.90;;;;;;5091680;28;19955;-53
2022/12/13 02:50:39;;;;;;;;;;;-2.80;99.90;;;;;;5079478;28;20367;-53
2022/12/13 02:53:07;;;;;;;;;;;-2.80;99.90;;;;;;5085906;28;20580;-63
2022/12/13 02:55:35;;;;;;;;;;;-2.80;99.90;;;;;;5090765;28;19955;-53
2022/12/13 02:58:02;;;;;;;;;;;-2.80;99.90;;;;;;5094892;28;19924;-53
2022/12/13 03:00:35;;;;;;;;;;;-2.80;99.90;;;;;;5089027;28;19925;-54
2022/12/13 03:03:11;;;;;;;;;;;-2.80;99.90;;;;;;5089497;28;19936;-53
2022/12/13 03:08:30;;;;;;;;;;;-2.80;99.90;;;;;;5088308;28;19924;-53
2022/12/13 03:11:02;;;;;;;;;;;-2.90;99.90;;;;;;5093353;28;19924;-55
2022/12/13 03:13:35;;;;;;;;;;;-2.90;99.90;;;;;;5092681;28;20375;-53
2022/12/13 03:16:05;;;;;;;;;;;-2.90;99.90;;;;;;5075386;28;19920;-53
2022/12/13 03:18:34;;;;;;;;;;;-2.90;99.90;;;;;;5088958;28;19955;-53
2022/12/13 03:21:02;;;;;;;;;;;-2.90;99.90;;;;;;5092577;28;20033;-53
2022/12/13 03:23:28;;;;;;;;;;;-2.90;99.90;;;;;;5089850;28;19931;-54
2022/12/13 03:25:56;;;;;;;;;;;-2.90;99.90;;;;;;5090467;28;20414;-54
2022/12/13 03:28:23;;;;;;;;;;;-2.90;99.90;;;;;;5089273;28;20557;-53
2022/12/13 03:30:50;;;;;;;;;;;-2.90;99.90;;;;;;5090793;28;19935;-54
2022/12/13 03:33:17;;;;;;;;;;;-2.90;99.90;;;;;;5093052;28;19934;-54
2022/12/13 03:35:45;;;;;;;;;;;-2.90;99.90;;;;;;5092908;28;19959;-54
2022/12/13 03:38:13;;;;;;;;;;;-2.90;99.90;;;;;;5090454;28;19970;-53
2022/12/13 03:40:40;;;;;;;;;;;-3.00;99.90;;;;;;5094996;28;20025;-53
2022/12/13 03:43:07;;;;;;;;;;;-3.00;99.90;;;;;;5067475;28;19936;-53
2022/12/13 03:45:34;;;;;;;;;;;-3.00;99.90;;;;;;5093440;28;19930;-53
2022/12/13 03:48:01;;;;;;;;;;;-3.00;99.90;;;;;;5094146;28;19924;-53
2022/12/13 03:50:27;;;;;;;;;;;-3.00;99.90;;;;;;5070424;28;19932;-53
2022/12/13 03:52:59;;;;;;;;;;;-3.00;99.90;;;;;;5075067;28;19932;-54
2022/12/13 03:55:26;;;;;;;;;;;-3.00;99.90;;;;;;5070116;28;19963;-53
2022/12/13 03:57:53;;;;;;;;;;;-3.00;99.90;;;;;;5090726;28;20018;-53
2022/12/13 04:00:21;;;;;;;;;;;-3.00;99.90;;;;;;5075656;28;19928;-53
2022/12/13 04:02:47;;;;;;;;;;;-3.10;99.90;;;;;;5087090;28;19931;-52
2022/12/13 04:05:14;;;;;;;;;;;-3.10;99.90;;;;;;5093292;28;19931;-52
2022/12/13 04:07:41;;;;;;;;;;;-3.10;99.90;;;;;;5090622;28;19942;-53
2022/12/13 04:10:10;;;;;;;;;;;-3.10;99.90;;;;;;5095005;28;19992;-53
2022/12/13 04:15:21;;;;;;;;;;;-3.10;99.90;;;;;;5094365;28;20322;-53
2022/12/13 04:17:48;;;;;;;;;;;-3.10;99.90;;;;;;5074727;28;20007;-53
2022/12/13 04:20:15;;;;;;;;;;;-3.10;99.90;;;;;;5089223;28;20369;-53
2022/12/13 04:22:42;;;;;;;;;;;-3.10;99.90;;;;;;5092824;28;19936;-53
2022/12/13 04:25:10;;;;;;;;;;;-3.10;99.90;;;;;;5091473;28;20369;-53
2022/12/13 04:27:37;;;;;;;;;;;-3.20;99.90;;;;;;5092826;28;20032;-53
2022/12/13 04:30:04;;;;;;;;;;;-3.10;99.90;;;;;;5093383;28;20380;-58
2022/12/13 04:32:32;;;;;;;;;;;-3.10;99.90;;;;;;5085349;28;19924;-53
2022/12/13 04:34:58;;;;;;;;;;;-3.10;99.90;;;;;;5097534;28;20605;-52
2022/12/13 04:37:25;;;;;;;;;;;-3.20;99.90;;;;;;5088750;28;19931;-53
2022/12/13 04:39:52;;;;;;;;;;;-3.20;99.90;;;;;;5088547;28;19943;-53
2022/12/13 04:42:20;;;;;;;;;;;-3.20;99.90;;;;;;5091835;28;19956;-53
2022/12/13 04:44:48;;;;;;;;;;;-3.20;99.90;;;;;;5088246;28;19932;-53
2022/12/13 04:47:15;;;;;;;;;;;-3.20;99.90;;;;;;5081787;28;19925;-53
2022/12/13 04:49:42;;;;;;;;;;;-3.20;99.90;;;;;;5085251;28;19932;-53
2022/12/13 04:52:09;;;;;;;;;;;-3.20;99.90;;;;;;5085586;28;19951;-52
2022/12/13 04:54:36;;;;;;;;;;;-3.20;99.90;;;;;;5091593;28;20013;-52
2022/12/13 04:57:03;;;;;;;;;;;-3.20;99.90;;;;;;5087604;28;19940;-53
2022/12/13 04:59:31;;;;;;;;;;;-3.20;99.90;;;;;;5096096;28;19928;-54
2022/12/13 05:01:58;;;;;;;;;;;-3.30;99.90;;;;;;5091925;28;19928;-53
2022/12/13 05:04:25;;;;;;;;;;;-3.30;99.90;;;;;;5090716;28;19928;-52
2022/12/13 05:06:52;;;;;;;;;;;-3.30;99.90;;;;;;5092458;28;19933;-52
2022/12/13 05:09:18;;;;;;;;;;;-3.30;99.90;;;;;;5093123;28;19938;-53
2022/12/13 05:11:45;;;;;;;;;;;-3.30;99.90;;;;;;5069392;28;19938;-52
2022/12/13 05:14:12;;;;;;;;;;;-3.30;99.90;;;;;;5092640;28;20380;-55
2022/12/13 05:16:41;;;;;;;;;;;-3.30;99.90;;;;;;5097959;28;19981;-55
2022/12/13 05:19:08;;;;;;;;;;;-3.40;99.90;;;;;;5067111;28;19928;-55
2022/12/13 05:21:34;;;;;;;;;;;-3.30;99.90;;;;;;5080452;28;19931;-55
2022/12/13 05:24:02;;;;;;;;;;;-3.40;99.90;;;;;;5086483;28;19951;-55
2022/12/13 05:26:29;;;;;;;;;;;-3.40;99.90;;;;;;5084591;28;19924;-56
2022/12/13 05:28:56;;;;;;;;;;;-3.40;99.90;;;;;;5091947;28;20015;-55
2022/12/13 05:31:23;;;;;;;;;;;-3.40;99.90;;;;;;5092494;28;19930;-55
2022/12/13 05:33:51;;;;;;;;;;;-3.40;99.90;;;;;;5096473;28;20019;-55
2022/12/13 05:36:18;;;;;;;;;;;-3.40;99.90;;;;;;5086517;28;19924;-55
2022/12/13 05:38:44;;;;;;;;;;;-3.50;99.90;;;;;;5085917;28;19924;-52
2022/12/13 05:41:14;;;;;;;;;;;-3.50;99.90;;;;;;5092116;28;19924;-52
2022/12/13 05:43:40;;;;;;;;;;;-3.50;99.90;;;;;;5095105;28;19939;-53
2022/12/13 05:46:07;;;;;;;;;;;-3.50;99.90;;;;;;5083975;28;20039;-52
2022/12/13 05:48:34;;;;;;;;;;;-3.50;99.90;;;;;;5086004;28;19931;-52
2022/12/13 05:51:02;;;;;;;;;;;-3.50;99.90;;;;;;5085653;28;20007;-52
2022/12/13 05:53:29;;;;;;;;;;;-3.50;99.90;;;;;;5084956;28;19970;-52
2022/12/13 05:55:58;;;;;;;;;;;-3.50;99.90;;;;;;5084914;28;19928;-53
2022/12/13 05:58:26;;;;;;;;;;;-3.50;99.90;;;;;;5089178;28;20390;-53
2022/12/13 06:00:53;;;;;;;;;;;-3.60;99.90;;;;;;5089813;28;20018;-52
2022/12/13 06:03:20;;;;;;;;;;;-3.60;99.90;;;;;;5084661;28;19924;-52
2022/12/13 06:05:47;;;;;;;;;;;-3.60;99.90;;;;;;5084712;28;19928;-55
2022/12/13 06:08:15;;;;;;;;;;;-3.60;99.90;;;;;;5086865;28;20301;-55
2022/12/13 06:10:42;;;;;;;;;;;-3.60;99.90;;;;;;5083548;28;19932;-60
2022/12/13 06:13:08;;;;;;;;;;;-3.60;99.90;;;;;;5096521;28;20362;-53
2022/12/13 06:15:37;;;;;;;;;;;-3.70;99.90;;;;;;5086138;28;19931;-54
2022/12/13 06:18:05;;;;;;;;;;;-3.70;99.90;;;;;;5089816;28;20059;-54
2022/12/13 06:20:31;;;;;;;;;;;-3.70;99.90;;;;;;5084968;28;19928;-61
2022/12/13 06:22:58;;;;;;;;;;;-3.70;99.90;;;;;;5077733;28;20054;-53
2022/12/13 06:25:27;;;;;;;;;;;-3.70;99.90;;;;;;5080128;28;20449;-53
2022/12/13 06:27:53;;;;;;;;;;;-4.40;99.90;;;;;;5080606;28;20015;-53
2022/12/13 06:30:20;;;;;;;;;;;-5.00;99.90;;;;;;5076510;28;20030;-54
2022/12/13 06:32:48;;;;;;;;;;;-5.00;99.90;;;;;;5080910;28;19930;-52
2022/12/13 06:35:15;;;;;;;;;;;-4.70;99.90;;;;;;5079734;28;19924;-56
2022/12/13 06:37:42;;;;;;;;;;;-4.50;99.90;;;;;;5084641;28;19932;-53
2022/12/13 06:40:09;;;;;;;;;;;-4.40;99.90;;;;;;5082759;28;20487;-53
2022/12/13 06:42:37;;;;;;;;;;;-4.30;99.90;;;;;;5085770;28;19924;-52
2022/12/13 06:45:05;;;;;;;;;;;-4.30;99.90;;;;;;5088303;28;19924;-52
2022/12/13 06:47:32;;;;;;;;;;;-4.20;99.90;;;;;;5079369;28;19924;-51
2022/12/13 06:49:59;;;;;;;;;;;-4.20;99.90;;;;;;5085440;28;20562;-52
2022/12/13 06:52:26;;;;;;;;;;;-4.10;99.90;;;;;;5082108;28;20386;-52
2022/12/13 06:54:53;;;;;;;;;;;-4.10;99.90;;;;;;5062092;28;20399;-52
2022/12/13 06:57:20;;;;;;;;;;;-4.10;99.90;;;;;;5083099;28;19938;-52
2022/12/13 06:59:48;;;;;;;;;;;-4.10;99.90;;;;;;5084450;28;20383;-53
2022/12/13 07:02:15;;;;;;;;;;;-4.00;99.90;;;;;;5083561;28;19924;-53
2022/12/13 07:04:42;;;;;;;;;;;-4.00;99.90;;;;;;5083318;28;19953;-53
2022/12/13 07:07:09;;;;;;;;;;;-4.00;99.90;;;;;;5063192;28;19932;-53
2022/12/13 07:09:36;;;;;;;;;;;-4.00;99.90;;;;;;5090750;28;19924;-55
2022/12/13 07:12:03;;;;;;;;;;;-4.00;99.90;;;;;;5082707;28;19932;-53
2022/12/13 07:14:30;;;;;;;;;;;-4.00;99.90;;;;;;5090031;28;20062;-53
2022/12/13 07:16:58;;;;;;;;;;;-4.00;99.90;;;;;;5088320;28;19955;-53
2022/12/13 07:19:25;;;;;;;;;;;-4.00;99.90;;;;;;5087789;28;19924;-58
2022/12/13 07:21:52;;;;;;;;;;;-4.00;99.90;;;;;;5088210;28;20015;-53
2022/12/13 07:24:19;;;;;;;;;;;-4.00;99.90;;;;;;5089462;28;19938;-53
2022/12/13 07:26:46;;;;;;;;;;;-4.00;99.90;;;;;;5083641;28;20022;-55
2022/12/13 07:29:12;;;;;;;;;;;-3.90;99.90;;;;;;5090801;28;20683;-55
2022/12/13 07:31:39;;;;;;;;;;;-3.90;99.90;;;;;;5087880;28;20442;-55
2022/12/13 07:34:07;;;;;;;;;;;-4.00;99.90;;;;;;5088096;28;19932;-55
2022/12/13 07:36:34;;;;;;;;;;;-4.00;99.90;;;;;;5066204;28;19940;-56
2022/12/13 07:39:01;;;;;;;;;;;-4.00;99.90;;;;;;5072165;28;20027;-56
2022/12/13 07:41:28;;;;;;;;;;;-3.90;99.90;;;;;;5085326;28;19924;-56
2022/12/13 07:43:55;;;;;;;;;;;-3.90;99.90;;;;;;5083398;28;19959;-56
2022/12/13 07:46:23;;;;;;;;;;;-3.90;99.90;;;;;;5086678;28;19928;-56
2022/12/13 07:48:49;;;;;;;;;;;-3.90;99.90;;;;;;5089113;28;20019;-55
2022/12/13 07:51:18;;;;;;;;;;;-3.90;99.90;;;;;;5087545;28;19943;-56
2022/12/13 07:53:44;;;;;;;;;;;-3.80;99.90;;;;;;5084701;28;20452;-56
2022/12/13 07:56:12;;;;;;;;;;;-3.90;99.90;;;;;;5077584;28;19932;-56
2022/12/13 07:58:40;;;;;;;;;;;-3.80;99.90;;;;;;5090643;28;20035;-56
2022/12/13 08:01:08;;;;;;;;;;;-3.80;99.90;;;;;;5085286;28;19947;-56
2022/12/13 08:03:36;;;;;;;;;;;-3.80;99.90;;;;;;5086068;28;19930;-56
2022/12/13 08:06:04;;;;;;;;;;;-3.90;99.90;;;;;;5066267;28;20234;-52
2022/12/13 08:08:32;;;;;;;;;;;-3.90;99.90;;;;;;5088496;28;19977;-53
2022/12/13 08:11:01;;;;;;;;;;;-3.80;99.90;;;;;;5088935;28;19950;-53
2022/12/13 08:13:27;;;;;;;;;;;-3.80;99.90;;;;;;5086956;28;19924;-52
2022/12/13 08:15:57;;;;;;;;;;;-3.80;99.90;;;;;;5080831;28;20023;-54
2022/12/13 08:18:24;;;;;;;;;;;-3.80;99.90;;;;;;5090439;28;19977;-56
2022/12/13 08:20:50;;;;;;;;;;;-3.80;99.90;;;;;;5082214;28;19932;-52
2022/12/13 08:23:17;;;;;;;;;;;-3.80;99.90;;;;;;5050587;28;20472;-55
2022/12/13 08:25:53;;;;;;;;;;;-3.80;99.90;;;;;;5058955;28;19967;-56
2022/12/13 08:28:22;;;;;;;;;;;-3.80;99.90;;;;;;5078088;28;19928;-56
2022/12/13 08:30:51;;;;;;;;;;;-3.80;99.90;;;;;;5086006;28;19981;-56
2022/12/13 08:33:19;;;;;;;;;;;-3.80;99.90;;;;;;5085970;28;20414;-56
2022/12/13 08:35:46;;;;;;;;;;;-3.80;99.90;;;;;;5079455;28;19932;-56
2022/12/13 08:38:13;;;;;;;;;;;-3.80;99.90;;;;;;5082581;28;20315;-52
2022/12/13 08:40:40;;;;;;;;;;;-3.80;99.90;;;;;;5086447;28;20036;-52
2022/12/13 08:43:08;;;;;;;;;;;-3.80;99.90;;;;;;5089695;28;19934;-52
2022/12/13 08:45:35;;;;;;;;;;;-3.80;99.90;;;;;;5063003;28;20382;-57
2022/12/13 08:48:02;;;;;;;;;;;-3.80;99.90;;;;;;5086148;28;20808;-56
2022/12/13 08:50:29;;;;;;;;;;;-3.80;99.90;;;;;;5087568;28;19971;-56
2022/12/13 08:52:56;;;;;;;;;;;-3.80;99.90;;;;;;5083352;28;19924;-56
2022/12/13 08:55:23;;;;;;;;;;;-3.80;99.90;;;;;;5084575;28;20011;-56
2022/12/13 08:57:50;;;;;;;;;;;-3.80;99.90;;;;;;5087776;28;19954;-56
2022/12/13 09:00:19;;;;;;;;;;;-3.80;99.90;;;;;;5082440;28;20094;-56
2022/12/13 09:02:46;;;;;;;;;;;-3.80;99.90;;;;;;5088044;28;20347;-56
2022/12/13 09:05:13;;;;;;;;;;;-3.80;99.90;;;;;;5086380;28;20375;-52
2022/12/13 09:07:40;;;;;;;;;;;-3.80;99.90;;;;;;5085016;28;20019;-52
2022/12/13 09:10:08;;;;;;;;;;;-3.80;99.90;;;;;;5090976;28;19928;-52
2022/12/13 09:12:34;;;;;;;;;;;-3.80;99.90;;;;;;5061339;28;19978;-53
2022/12/13 09:15:01;;;;;;;;;;;-3.80;99.90;;;;;;5086567;28;19932;-54
2022/12/13 09:17:33;;;;;;;;;;;-3.70;99.90;;;;;;5086010;28;20346;-53
2022/12/13 09:19:59;;;;;;;;;;;-3.80;99.90;;;;;;5087232;28;20469;-53
2022/12/13 09:22:26;;;;;;;;;;;-3.80;99.90;;;;;;5063942;28;19924;-54
2022/12/13 09:24:53;;;;;;;;;;;-3.80;99.90;;;;;;5084596;28;19932;-54
2022/12/13 09:27:20;;;;;;;;;;;-3.80;99.90;;;;;;5090675;28;19930;-53
2022/12/13 09:29:47;;;;;;;;;;;-3.80;99.90;;;;;;5081619;28;20015;-54
2022/12/13 09:32:14;;;;;;;;;;;-3.80;99.90;;;;;;5088905;28;19924;-54
2022/12/13 09:34:42;;;;;;;;;;;-3.70;99.90;;;;;;5090914;28;19985;-54
2022/12/13 09:37:11;;;;;;;;;;;-3.70;99.90;;;;;;5081644;28;20643;-54
2022/12/13 09:39:37;;;;;;;;;;;-3.70;99.90;;;;;;5085239;28;19956;-54
2022/12/13 09:42:04;;;;;;;;;;;-3.70;99.90;;;;;;5078889;28;19975;-53
2022/12/13 09:44:34;;;;;;;;;;;-3.70;99.90;;;;;;5081202;28;19928;-54
2022/12/13 09:47:02;;;;;;;;;;;-3.70;99.90;;;;;;5086178;28;19924;-54
2022/12/13 09:49:30;;;;;;;;;;;-3.70;99.90;;;;;;5084505;28;19936;-54
2022/12/13 09:52:00;;;;;;;;;;;-3.70;99.90;;;;;;5091109;28;19999;-54
2022/12/13 09:54:28;;;;;;;;;;;-3.70;99.90;;;;;;5082773;28;20458;-54
2022/12/13 09:56:56;;;;;;;;;;;-3.70;99.90;;;;;;5078778;28;20551;-53
2022/12/13 09:59:26;;;;;;;;;;;-3.70;99.90;;;;;;5082784;28;20279;-52
2022/12/13 10:01:53;;;;;;;;;;;-3.70;99.90;;;;;;5083951;28;19932;-52
2022/12/13 10:04:20;;;;;;;;;;;-3.70;99.90;;;;;;5085472;28;19924;-52
2022/12/13 10:06:50;;;;;;;;;;;-3.70;99.90;;;;;;5088458;28;19928;-54
2022/12/13 10:09:19;;;;;;;;;;;-3.70;99.90;;;;;;5086574;28;19932;-54
2022/12/13 10:11:47;;;;;;;;;;;-3.70;99.90;;;;;;5089059;28;20390;-54
2022/12/13 10:14:17;;;;;;;;;;;-3.70;99.90;;;;;;5085139;28;20015;-54
2022/12/13 10:16:46;;;;;;;;;;;-3.70;99.90;;;;;;5086279;28;20559;-53
2022/12/13 10:19:15;;;;;;;;;;;-3.70;99.90;;;;;;5082023;28;19932;-53
2022/12/13 10:21:43;;;;;;;;;;;-3.70;99.90;;;;;;5087171;28;20333;-54
2022/12/13 10:24:13;;;;;;;;;;;-3.70;99.90;;;;;;5084081;28;19960;-54
2022/12/13 10:26:41;;;;;;;;;;;-3.70;99.90;;;;;;5079865;28;19932;-54
2022/12/13 10:29:09;;;;;;;;;;;-3.70;99.90;;;;;;5088062;28;19928;-54
2022/12/13 10:31:40;;;;;;;;;;;-3.70;99.90;;;;;;5090794;28;19932;-54
2022/12/13 10:34:15;;;;;;;;;;;-3.60;99.90;;;;;;5088057;28;19932;-54
2022/12/13 10:36:43;;;;;;;;;;;-3.70;99.90;;;;;;5079322;28;19924;-54
2022/12/13 10:39:14;;;;;;;;;;;-3.70;99.90;;;;;;5081559;28;19967;-52
2022/12/13 10:41:45;;;;;;;;;;;-3.60;99.90;;;;;;5089233;28;19947;-52
2022/12/13 10:44:17;;;;;;;;;;;-3.60;99.90;;;;;;5084604;28;20357;-52
2022/12/13 10:46:48;;;;;;;;;;;-3.70;99.90;;;;;;5083569;28;19932;-54
2022/12/13 10:49:16;;;;;;;;;;;-3.70;99.90;;;;;;5090939;28;20012;-52
2022/12/13 10:51:43;;;;;;;;;;;-3.60;99.90;;;;;;5094679;28;20007;-54
2022/12/13 10:54:14;;;;;;;;;;;-3.60;99.90;;;;;;5076173;28;20015;-56
2022/12/13 10:56:45;;;;;;;;;;;-3.60;99.90;;;;;;5083318;28;19924;-53
2022/12/13 10:59:22;;;;;;;;;;;-3.60;99.90;;;;;;5089723;28;19966;-55
2022/12/13 11:01:49;;;;;;;;;;;-3.60;99.90;;;;;;5098061;28;19963;-53
2022/12/13 11:04:24;;;;;;;;;;;-3.60;99.90;;;;;;5070369;28;19928;-54
2022/12/13 11:06:51;;;;;;;;;;;-3.60;99.90;;;;;;5095882;28;19924;-54
2022/12/13 11:09:24;;;;;;;;;;;-3.60;99.90;;;;;;5071730;28;20383;-54
2022/12/13 11:11:53;;;;;;;;;;;-3.60;99.90;;;;;;5090164;28;19930;-54
2022/12/13 11:14:22;;;;;;;;;;;-3.60;99.90;;;;;;5095516;28;20294;-54
2022/12/13 11:16:50;;;;;;;;;;;-3.60;99.90;;;;;;5094413;28;19924;-54
2022/12/13 11:19:18;;;;;;;;;;;-3.60;99.90;;;;;;5083585;28;19928;-54
2022/12/13 11:21:47;;;;;;;;;;;-3.60;99.90;;;;;;5089867;28;19932;-54
2022/12/13 11:24:20;;;;;;;;;;;-3.50;99.90;;;;;;5094827;28;19923;-54
2022/12/13 11:26:49;;;;;;;;;;;-3.50;99.90;;;;;;5092433;28;20401;-54
2022/12/13 11:29:28;;;;;;;;;;;-3.50;99.90;;;;;;5090070;28;20391;-54
2022/12/13 11:32:01;;;;;;;;;;;-3.50;99.90;;;;;;5086890;28;20428;-54
2022/12/13 11:34:35;;;;;;;;;;;-3.50;99.90;;;;;;5087561;28;19967;-54
2022/12/13 11:37:06;;;;;;;;;;;-3.50;99.90;;;;;;5084073;28;20444;-54
2022/12/13 11:39:35;;;;;;;;;;;-3.50;99.90;;;;;;5089030;28;20014;-56
2022/12/13 11:42:05;;;;;;;;;;;-3.50;99.90;;;;;;5093322;28;20024;-56
2022/12/13 11:44:38;;;;;;;;;;;-3.50;99.90;;;;;;5088804;28;19928;-59
2022/12/13 11:47:05;;;;;;;;;;;-3.50;99.90;;;;;;5085857;28;20402;-56
2022/12/13 11:49:37;;;;;;;;;;;-3.50;99.90;;;;;;5092704;28;19939;-52
2022/12/13 11:52:06;;;;;;;;;;;-3.50;99.90;;;;;;5082859;28;19963;-52
2022/12/13 11:54:37;;;;;;;;;;;-3.50;99.90;;;;;;5087012;28;20310;-52
2022/12/13 11:57:06;;;;;;;;;;;-3.50;99.90;;;;;;5084752;28;20024;-56
2022/12/13 11:59:39;;;;;;;;;;;-3.40;99.90;;;;;;5088058;28;19928;-52
2022/12/13 12:02:12;;;;;;;;;;;-3.50;99.90;;;;;;5085309;28;19931;-54
2022/12/13 12:04:44;;;;;;;;;;;-3.40;99.90;;;;;;5080717;28;20047;-52
2022/12/13 12:07:12;;;;;;;;;;;-3.40;99.90;;;;;;5084666;28;19973;-51
2022/12/13 12:09:40;;;;;;;;;;;-3.40;99.90;;;;;;5080357;28;19960;-53
2022/12/13 12:12:12;;;;;;;;;;;-3.40;99.90;;;;;;5064525;28;20475;-54
2022/12/13 12:14:43;;;;;;;;;;;-3.40;99.90;;;;;;5069220;28;20302;-53
2022/12/13 12:17:12;;;;;;;;;;;-3.40;99.90;;;;;;5086504;28;20455;-52
2022/12/13 12:19:40;;;;;;;;;;;-3.40;99.90;;;;;;5088340;28;20383;-52
2022/12/13 12:22:11;;;;;;;;;;;-3.40;99.90;;;;;;5087509;28;19928;-54
2022/12/13 12:24:44;;;;;;;;;;;-3.40;99.90;;;;;;5087878;28;19932;-57
2022/12/13 12:27:22;;;;;;;;;;;-3.40;99.90;;;;;;5087887;28;19931;-56
2022/12/13 12:30:02;;;;;;;;;;;-3.30;99.90;;;;;;5083280;28;20046;-54
2022/12/13 12:32:33;;;;;;;;;;;-3.30;99.90;;;;;;5090152;28;20383;-54
2022/12/13 12:35:04;;;;;;;;;;;-3.30;99.90;;;;;;5087901;28;19955;-52
2022/12/13 12:37:39;;;;;;;;;;;-3.30;99.90;;;;;;5085888;28;19998;-54
2022/12/13 12:40:31;;;;;;;;;;;-3.30;99.90;;;;;;5090029;28;19939;-56
2022/12/13 12:43:01;;;;;;;;;;;-3.30;99.90;;;;;;5087396;28;19936;-52
2022/12/13 12:45:36;;;;;;;;;;;-3.30;99.90;;;;;;5085077;28;19971;-54
2022/12/13 12:48:15;;;;;;;;;;;-3.30;99.90;;;;;;5086012;28;19939;-52
2022/12/13 12:50:44;;;;;;;;;;;-3.30;99.90;;;;;;5086974;28;20290;-54
2022/12/13 12:53:21;;;;;;;;;;;-3.30;99.90;;;;;;5094029;28;20344;-51
2022/12/13 12:55:51;;;;;;;;;;;-3.20;99.90;;;;;;5083579;28;19927;-56
2022/12/13 12:58:22;;;;;;;;;;;-3.30;99.90;;;;;;5081420;28;19974;-57
2022/12/13 13:00:57;;;;;;;;;;;-3.20;99.90;;;;;;5085883;28;19932;-54
2022/12/13 13:03:27;;;;;;;;;;;-3.20;99.90;;;;;;5084794;28;19969;-52
2022/12/13 13:05:56;;;;;;;;;;;-3.20;99.90;;;;;;5080721;28;20525;-53
2022/12/13 13:08:25;;;;;;;;;;;-3.20;99.90;;;;;;5085304;28;20551;-53
2022/12/13 13:10:53;;;;;;;;;;;-3.20;99.90;;;;;;5087690;28;19982;-56
2022/12/13 13:13:44;;;;;;;;;;;-3.20;99.90;;;;;;5085264;28;20355;-58
2022/12/13 13:16:26;;;;;;;;;;;-3.20;99.90;;;;;;5061751;28;19924;-57
2022/12/13 13:18:55;;;;;;;;;;;-3.20;99.90;;;;;;5083928;28;20035;-56
2022/12/13 13:21:26;;;;;;;;;;;-3.20;99.90;;;;;;5083478;28;19928;-56
2022/12/13 13:24:05;;;;;;;;;;;-3.20;99.90;;;;;;5070257;28;19925;-56
2022/12/13 13:26:32;;;;;;;;;;;-3.20;99.90;;;;;;5084173;28;19936;-56
2022/12/13 13:29:14;;;;;;;;;;;-3.10;99.90;;;;;;5080135;28;20558;-56
2022/12/13 13:31:54;;;;;;;;;;;-3.10;99.90;;;;;;5085719;28;20893;-56
2022/12/13 13:34:24;;;;;;;;;;;-3.10;99.90;;;;;;5080909;28;19928;-56
2022/12/13 13:36:52;;;;;;;;;;;-3.10;99.90;;;;;;5084748;28;19939;-56
2022/12/13 13:39:19;;;;;;;;;;;-3.10;99.90;;;;;;5087229;28;19924;-56
2022/12/13 13:41:54;;;;;;;;;;;-3.10;99.90;;;;;;5072182;28;20001;-56
2022/12/13 13:44:32;;;;;;;;;;;-3.10;99.90;;;;;;5084628;28;19928;-56
2022/12/13 13:47:11;;;;;;;;;;;-3.10;99.90;;;;;;5088105;28;20014;-56
2022/12/13 13:49:46;;;;;;;;;;;-3.10;99.90;;;;;;5083369;28;19936;-57
2022/12/13 13:52:18;;;;;;;;;;;-3.10;99.90;;;;;;5079708;28;19977;-52
2022/12/13 13:55:03;;;;;;;;;;;-3.10;99.90;;;;;;5082988;28;19954;-53
2022/12/13 13:57:49;;;;;;;;;;;-3.00;99.90;;;;;;5084344;28;20405;-52
2022/12/13 14:00:17;;;;;;;;;;;-3.00;99.90;;;;;;5092356;28;20412;-53
2022/12/13 14:03:08;;;;;;;;;;;-3.00;99.90;;;;;;5078330;28;19924;-53
2022/12/13 14:05:52;;;;;;;;;;;-3.00;99.90;;;;;;5084891;28;20276;-53
2022/12/13 14:08:26;;;;;;;;;;;-3.00;99.90;;;;;;5087877;28;19971;-54
2022/12/13 14:11:03;;;;;;;;;;;-3.00;99.90;;;;;;5088768;28;19924;-54
2022/12/13 14:13:44;;;;;;;;;;;-3.00;99.90;;;;;;5089014;28;19925;-54
2022/12/13 14:16:29;;;;;;;;;;;-3.00;99.90;;;;;;5058553;28;20040;-56
2022/12/13 14:19:15;;;;;;;;;;;-3.00;99.90;;;;;;5079470;28;20497;-53
2022/12/13 14:21:50;;;;;;;;;;;-3.00;99.90;;;;;;5087302;28;19924;-53
2022/12/13 14:24:21;;;;;;;;;;;-3.00;99.90;;;;;;5085194;28;20280;-54
2022/12/13 14:26:57;;;;;;;;;;;-2.90;99.90;;;;;;5091419;28;19938;-54
2022/12/13 14:29:27;;;;;;;;;;;-3.00;99.90;;;;;;5092471;28;19971;-52
2022/12/13 14:31:54;;;;;;;;;;;-2.90;99.90;;;;;;5092021;28;19935;-56
2022/12/13 14:34:23;;;;;;;;;;;-2.90;99.90;;;;;;5091957;28;20403;-59